Benavides, Texas
Current Conditions -  °F | °C
As of 10:53 AM on Friday 28 Nov 2014 (Local Time) from KALI Reporting Station
Clear Clear  
Wind Chill: 73°   Ceiling: Unl
Heat Index: 73°   Visibility: 10mi
Dew Point: 52°   Wind: 16mph
Humidity: 48%   Direction: 180°S
Pressure: 30.3"   Gusts: 24mph
Location:  27.6°N, 98.41°W
Report Text: KALI 281653Z AUTO 18014G21KT 10SM CLR 23/11 A3030 RMK AO2 SLP258 T02280111 $
Loading
Personal Weather Stations






























Interactive Weather Map New forecast layout! Learn more

10-Day Weather Forecast

Advertisements
Track Severe Weather on mobile